DW2802 Ogijares ES current weather conditions

sailwx.info

Wind from 283 at 7 knots gusting 15

Air temperature 16.1° C
Dewpoint 8.1° C

Last reported at 2015-Mar-27 10:42 UTC.
Time now 2015-Mar-27 11:56 UTC

Location: N 37°07' W 003°36'.
View on Google Maps.

See reports from other nearby stations

  
Tides and Currents Weather Stations Pressure Air Temp Water Temp Dewpoint Dewpoint Depression Visibility Wind Speed Wind Dir Waves Ship Positions
date/time (UTC)wind fromknots sea level pressurealtimeterstation pressurevisibilityair tempwater tempwave heightnotes
2015-Mar-27 10:42 283 7 gusting 15 16.1
2015-Mar-27 10:27 344 9 gusting 14 15.6
2015-Mar-27 10:12 011 7 gusting 14 15.6
2015-Mar-27 09:56 035 4 gusting 9 14.4
2015-Mar-27 09:41 325 3 gusting 6 13.3
2015-Mar-27 09:26 295 0 gusting 6 12.8
2015-Mar-27 09:11 286 0 gusting 4 12.2
2015-Mar-27 08:56 321 2 gusting 5 11.7
2015-Mar-27 08:41 321 1 gusting 4 11.1
2015-Mar-27 08:26 295 3 gusting 6 10.6
2015-Mar-27 08:11 333 2 gusting 5 10.0
2015-Mar-27 07:56 319 0 gusting 3 10.0
2015-Mar-27 07:41 041 10.0
2015-Mar-27 07:26 041 9.4
2015-Mar-27 07:11 041 8.3
2015-Mar-27 06:56 041 7.8
2015-Mar-27 06:41 041 7.8
2015-Mar-27 06:26 041 8.3
2015-Mar-27 06:11 041 8.3
2015-Mar-27 05:56 041 8.9
2015-Mar-27 05:40 041 8.9
2015-Mar-27 05:25 041 9.4
2015-Mar-27 05:10 041 9.4
2015-Mar-27 04:55 041 9.4
2015-Mar-27 04:40 039 9.4
2015-Mar-27 04:25 044 0 gusting 5 10.0
2015-Mar-27 04:10 082 1 gusting 4 10.0
2015-Mar-27 03:55 315 1 gusting 6 10.0
2015-Mar-27 03:40 307 2 gusting 8 10.0
2015-Mar-27 03:25 292 4 gusting 6 10.0
2015-Mar-27 03:10 005 10.0
2015-Mar-27 02:55 005 10.0
2015-Mar-27 02:40 333 10.0
2015-Mar-27 02:25 333 9.4
2015-Mar-27 02:10 333 9.4
2015-Mar-27 01:55 333 9.4
2015-Mar-27 01:40 333 9.4
2015-Mar-27 01:25 333 9.4
2015-Mar-27 01:10 333 9.4
2015-Mar-27 00:55 333 9.4
2015-Mar-27 00:40 333 9.4
2015-Mar-27 00:25 333 9.4
2015-Mar-27 00:10 333 8.9
2015-Mar-26 23:55 333 8.9
2015-Mar-26 23:40 333 8.9
2015-Mar-26 23:25 333 8.9
2015-Mar-26 23:10 333 8.9
2015-Mar-26 22:55 333 8.9
2015-Mar-26 22:40 334 8.9
2015-Mar-26 22:25 334 9.4
2015-Mar-26 22:10 334 9.4
2015-Mar-26 21:41 043 2 gusting 5 9.4
2015-Mar-26 21:25 059 2 gusting 6 9.4
2015-Mar-26 21:10 009 5 gusting 9 9.4
2015-Mar-26 20:55 323 1 gusting 6 9.4
2015-Mar-26 20:40 335 9.4
2015-Mar-26 20:25 360 2 gusting 6 10.0
2015-Mar-26 20:10 348 3 gusting 9 10.0
2015-Mar-26 19:55 337 10.0
2015-Mar-26 19:40 314 3 gusting 8 10.6
2015-Mar-26 19:26 348 4 gusting 8 11.1
2015-Mar-26 19:09 351 4 gusting 12 11.7
2015-Mar-26 18:54 025 1 gusting 8 11.7
2015-Mar-26 18:39 019 4 gusting 8 12.2
2015-Mar-26 18:24 041 4 gusting 9 12.8
2015-Mar-26 18:09 032 5 gusting 12 12.8
2015-Mar-26 17:54 018 6 gusting 11 13.3
2015-Mar-26 17:39 033 8 gusting 14 13.3
2015-Mar-26 17:24 351 11 gusting 17 12.8
2015-Mar-26 17:09 018 8 gusting 15 12.8
2015-Mar-26 16:54 355 6 gusting 15 12.8
2015-Mar-26 16:39 022 6 gusting 18 12.8
2015-Mar-26 16:24 040 12 gusting 19 13.3
2015-Mar-26 16:09 350 11 gusting 19 13.3
2015-Mar-26 15:54 005 13 gusting 23 13.3
2015-Mar-26 15:39 025 15 gusting 22 13.3
2015-Mar-26 15:24 360 11 gusting 23 13.9
2015-Mar-26 15:09 332 13 gusting 26 13.9
2015-Mar-26 14:54 355 13 gusting 22 14.4
2015-Mar-26 14:39 336 11 gusting 20 13.9
2015-Mar-26 14:24 355 12 gusting 23 14.4
2015-Mar-26 14:09 345 13 gusting 21 13.9
2015-Mar-26 13:54 355 12 gusting 21 13.9
2015-Mar-26 13:39 005 9 gusting 17 13.3
2015-Mar-26 13:24 017 6 gusting 13 12.2
2015-Mar-26 13:09 005 9 gusting 16 12.8
2015-Mar-26 12:54 355 8 gusting 14 12.2
2015-Mar-26 12:39 344 8 gusting 16 11.1
2015-Mar-26 12:24 317 10 gusting 14 10.6
2015-Mar-26 12:09 331 10 gusting 17 10.6
2015-Mar-26 11:53 355 10 gusting 18 9.4
2015-Mar-26 11:38 340 10 gusting 16 9.4
2015-Mar-26 11:23 009 9 gusting 16 9.4
2015-Mar-26 11:08 338 8 gusting 14 8.9
2015-Mar-26 10:53 345 7 gusting 14 8.3
2015-Mar-26 10:38 340 8 gusting 13 7.8
2015-Mar-26 10:23 320 8 gusting 13 6.7
2015-Mar-26 10:08 355 6 gusting 12 5.6
2015-Mar-26 09:53 329 6 gusting 11 5.0
2015-Mar-26 09:38 333 7 gusting 12 5.0
2015-Mar-26 09:23 340 6 gusting 12 5.0
2015-Mar-26 09:08 005 1 gusting 6 4.4
2015-Mar-26 08:53 026 1 gusting 3 3.3
2015-Mar-26 08:38 321 3 gusting 6 3.3
2015-Mar-26 08:23 355 2 gusting 4 2.8
2015-Mar-26 08:08 329 2 gusting 4 2.8
2015-Mar-26 07:53 330 2.2
2015-Mar-26 07:38 335 2.2
2015-Mar-26 07:23 335 2.2
2015-Mar-26 07:08 334 0 gusting 4 1.7
2015-Mar-26 06:53 334 1.1
2015-Mar-26 06:38 304 1.1
2015-Mar-26 06:23 304 0.6
2015-Mar-26 06:07 304 0.6
2015-Mar-26 05:52 304 1.1
2015-Mar-26 05:37 304 1.1
2015-Mar-26 05:22 304 1.1
2015-Mar-26 05:07 304 1.1
2015-Mar-26 04:52 304 0 gusting 3 1.7
2015-Mar-26 04:37 304 1.7
2015-Mar-26 04:22 296 1 gusting 6 1.7
2015-Mar-26 04:07 295 4 gusting 7 1.7
2015-Mar-26 03:52 272 7 gusting 10 2.2
2015-Mar-26 03:37 324 2.2
2015-Mar-26 03:22 323 3 gusting 7 2.8
2015-Mar-26 03:07 355 3 gusting 6 2.8
2015-Mar-26 02:52 043 4 gusting 8 2.2
2015-Mar-26 02:37 015 3 gusting 6 2.2
2015-Mar-26 02:22 326 2.2
2015-Mar-26 02:07 326 2.2
2015-Mar-26 01:52 326 2.8
2015-Mar-26 01:37 334 3 gusting 7 2.8
2015-Mar-26 01:22 333 0 gusting 5 2.8
2015-Mar-26 01:07 333 2.8
2015-Mar-26 00:52 355 2 gusting 8 2.8
2015-Mar-26 00:37 303 5 gusting 8 3.3
2015-Mar-26 00:22 349 2 gusting 9 3.9
2015-Mar-26 00:07 355 4 gusting 8 4.4
2015-Mar-25 23:52 037 5 gusting 9 5.0
2015-Mar-25 23:37 026 4 gusting 10 4.4
2015-Mar-25 23:22 024 5 gusting 9 5.0
2015-Mar-25 23:07 032 4 gusting 9 5.0
2015-Mar-25 22:52 051 5 gusting 9 5.0
2015-Mar-25 22:37 014 8 gusting 13 5.6
2015-Mar-25 22:21 043 7 gusting 18 5.0
2015-Mar-25 22:06 043 4 gusting 9 5.0
2015-Mar-25 21:51 044 6 gusting 11 4.4
2015-Mar-25 21:36 057 6 gusting 12 4.4
2015-Mar-25 21:21 037 6 gusting 11 4.4
2015-Mar-25 21:06 074 6 gusting 12 4.4
2015-Mar-25 20:51 040 9 gusting 23 5.0
2015-Mar-25 20:36 355 6 gusting 11 5.0
2015-Mar-25 20:21 043 8 gusting 18 4.4
2015-Mar-25 20:06 040 4 gusting 9 4.4
2015-Mar-25 19:51 031 4 gusting 9 4.4
2015-Mar-25 19:36 014 5 gusting 11 3.9
2015-Mar-25 19:21 360 7 gusting 17 4.4
2015-Mar-25 19:06 032 9 gusting 20 4.4
2015-Mar-25 18:51 013 8 gusting 12 4.4
2015-Mar-25 18:36 020 9 gusting 15 4.4
2015-Mar-25 18:21 030 5 gusting 13 3.9
2015-Mar-25 18:06 011 6 gusting 15 5.0
2015-Mar-25 17:51 012 11 gusting 18 4.4
2015-Mar-25 17:36 331 9 gusting 15 4.4
2015-Mar-25 17:21 009 6 gusting 16 4.4
2015-Mar-25 17:06 338 16 gusting 27 5.6
2015-Mar-25 16:51 040 7 gusting 18 6.7
2015-Mar-25 16:36 047 10 gusting 23 7.2
2015-Mar-25 16:21 043 13 gusting 19 7.2
2015-Mar-25 16:06 025 6 gusting 13 5.0
2015-Mar-25 15:51 026 23 gusting 36 6.1
2015-Mar-25 15:36 077 9 gusting 18 7.2
2015-Mar-25 15:21 041 10 gusting 20 7.2
2015-Mar-25 15:06 034 14 gusting 25 7.2
2015-Mar-25 14:51 017 13 gusting 19 8.3
2015-Mar-25 14:36 031 10 gusting 23 8.9
2015-Mar-25 14:21 026 11 gusting 21 8.9
2015-Mar-25 14:06 011 14 gusting 22 8.9
2015-Mar-25 13:51 009 13 gusting 19 8.9
2015-Mar-25 13:36 028 12 gusting 23 8.9
2015-Mar-25 13:21 015 13 gusting 21 8.9
2015-Mar-25 13:05 011 10 gusting 19 8.9
2015-Mar-25 12:50 346 13 gusting 25 8.9
2015-Mar-25 12:35 005 11 gusting 23 9.4
2015-Mar-25 12:20 355 12 gusting 19 9.4
2015-Mar-25 12:05 013 12 gusting 19 10.0
2015-Mar-25 11:50 032 12 gusting 21 9.4
2015-Mar-25 11:35 014 12 gusting 21 8.9
2015-Mar-25 11:20 040 10 gusting 22 8.9
2015-Mar-25 11:05 044 13 gusting 24 8.3